Flight Track Log - Related Links

Times and Time Zones

All times are in EDT time to prevent confusion due to time zone crossing. See the N13905 flight status page for this flight to view local times or setup timezone preferences in your user account.

Time Position Orientation Groundspeed Altitude Reporting Facility
EDT Latitude Longitude Course Direction KTS MPH feet Rate Location/Type
Wed 07:06:11 PM 47.5633 -117.6228 252° West 70 81 5,200  Level Seattle Center
Wed 07:07:00 PM 47.5441 -117.6703 261° West  Level FlightAware
Wed 07:07:12 PM 47.5639 -117.6519 272° West 71 82 5,600  Level Seattle Center
Wed 07:08:00 PM 47.5397 -117.7092 261° West  Level FlightAware
Wed 07:08:13 PM 47.5639 -117.6808 270° West 70 81 6,100  Level Seattle Center
Wed 07:09:00 PM 47.5354 -117.7480 261° West  Level FlightAware
Wed 07:09:14 PM 47.5628 -117.7158 267° West 72 83 6,700  Level Seattle Center
Wed 07:10:00 PM 47.5290 -117.7861 252° West  Level FlightAware
Wed 07:10:16 PM 47.5622 -117.7442 268° West 70 81 7,100  Level Seattle Center
Wed 07:11:00 PM 47.5207 -117.8236 252° West  Level FlightAware
Wed 07:11:17 PM 47.5617 -117.7744 268° West 73 84 7,500  Level Seattle Center
Wed 07:12:18 PM 47.5614 -117.8053 269° West 75 86 7,800 246 Climbing Seattle Center
Wed 07:13:19 PM 47.5606 -117.8356 268° West 74 85 8,000 295 Climbing Seattle Center
Wed 07:14:20 PM 47.5439 -117.8594 224° Southwest 84 97 8,400 344 Climbing Seattle Center
Wed 07:15:21 PM 47.5253 -117.8814 219° Southwest 85 98 8,700 295 Climbing Seattle Center
Wed 07:16:22 PM 47.5092 -117.9033 223° Southwest 80 92 9,000 344 Climbing Seattle Center
Wed 07:17:23 PM 47.5011 -117.9328 248° West 78 90 9,400 393 Climbing Seattle Center
Wed 07:18:24 PM 47.4958 -117.9644 256° West 79 91 9,800 344 Climbing Seattle Center
Wed 07:19:25 PM 47.4903 -117.9942 255° West 76 87 10,100 148 Climbing Seattle Center
Wed 07:20:26 PM 47.4819 -118.0392 255° West 97 112 10,100 -49 Level Seattle Center
Wed 07:21:27 PM 47.4750 -118.0783 255° West 99 114 10,000 -49 Descending Seattle Center
Wed 07:22:28 PM 47.4675 -118.1169 254° West 98 113 10,000  Level Seattle Center
Wed 07:23:29 PM 47.4589 -118.1550 252° West 97 112 10,000  Level Seattle Center
Wed 07:24:30 PM 47.4517 -118.1939 255° West 98 113 10,000 49 Level Seattle Center
Wed 07:25:31 PM 47.4431 -118.2297 250° West 90 104 10,100 49 Climbing Seattle Center
Wed 07:26:32 PM 47.4356 -118.2681 254° West 98 113 10,100 -49 Level Seattle Center
Wed 07:27:33 PM 47.4228 -118.3019 241° Southwest 100 115 10,000 -49 Descending Seattle Center
Wed 07:28:35 PM 47.3958 -118.3147 198° South 102 117 10,000  Level Seattle Center
Wed 07:29:36 PM 47.3731 -118.3278 201° Southwest 92 106 10,000 49 Level Seattle Center
Wed 07:30:37 PM 47.3642 -118.3489 238° Southwest 79 91 10,100 49 Climbing Seattle Center
Wed 07:31:38 PM 47.3867 -118.3742 323° Northwest 86 99 10,100  Level Seattle Center
Wed 07:32:39 PM 47.4042 -118.4047 310° West 98 113 10,100  Level Seattle Center
Wed 07:33:40 PM 47.4036 -118.4475 269° West 104 120 10,100  Level Seattle Center
Wed 07:34:41 PM 47.3983 -118.4881 259° West 103 119 10,100  Level Seattle Center
Wed 07:35:42 PM 47.3911 -118.5294 256° West 106 122 10,100 -49 Level Seattle Center
Wed 07:36:43 PM 47.3817 -118.5681 250° West 103 119 10,000  Descending Seattle Center
Wed 07:37:44 PM 47.3736 -118.6061 253° West 99 114 10,100  Climbing Seattle Center
Wed 07:38:45 PM 47.3678 -118.6453 258° West 103 119 10,000 -98 Descending Seattle Center
Wed 07:39:46 PM 47.3592 -118.6850 252° West 99 114 9,900  Descending Seattle Center
Wed 07:40:47 PM 47.3553 -118.7217 261° West 96 110 10,000 98 Climbing Seattle Center
Wed 07:41:48 PM 47.3469 -118.7564 251° West 89 102 10,100  Climbing Seattle Center
Wed 07:42:49 PM 47.3333 -118.7900 239° Southwest 95 109 10,000 -49 Descending Seattle Center
Wed 07:43:50 PM 47.3189 -118.8319 243° Southwest 98 113 10,000 49 Level Seattle Center
Wed 07:44:51 PM 47.3083 -118.8656 245° Southwest 91 105 10,100 49 Climbing Seattle Center
Wed 07:45:52 PM 47.2983 -118.9031 249° West 99 114 10,100  Level Seattle Center
Wed 07:46:53 PM 47.2922 -118.9403 256° West 95 109 10,100 -49 Level Seattle Center
Wed 07:47:54 PM 47.2850 -118.9781 254° West 97 112 10,000 -49 Descending Seattle Center
Wed 07:48:55 PM 47.2817 -119.0164 263° West 94 108 10,000  Level Seattle Center
Wed 07:49:56 PM 47.2753 -119.0544 256° West 96 110 10,000  Level Seattle Center
Wed 07:50:57 PM 47.2639 -119.0894 244° Southwest 93 107 10,000 49 Level Seattle Center
Wed 07:51:58 PM 47.2536 -119.1247 247° West 95 109 10,100  Climbing Seattle Center
Wed 07:52:59 PM 47.2486 -119.1617 259° West 94 108 10,000  Descending Seattle Center
Wed 07:54:00 PM 47.2408 -119.1981 253° West 92 106 10,100  Climbing Seattle Center
Wed 07:55:01 PM 47.2281 -119.2333 242° Southwest 97 112 10,000 -98 Descending Seattle Center
Wed 07:56:02 PM 47.2183 -119.2756 251° West 90 104 9,900 -49 Descending Seattle Center
Wed 07:57:03 PM 47.2094 -119.3114 250° West 94 108 9,900 49 Level Seattle Center
Wed 07:58:04 PM 47.2017 -119.3458 252° West 89 102 10,000 49 Climbing Seattle Center
Wed 07:59:05 PM 47.1983 -119.3828 262° West 90 104 10,000 -49 Level Seattle Center
Wed 08:00:06 PM 47.1917 -119.4194 255° West 93 107 9,900 -49 Descending Seattle Center
Wed 08:01:07 PM 47.1867 -119.4558 259° West 91 105 9,900  Level Seattle Center
Wed 08:02:08 PM 47.1811 -119.4908 257° West 88 101 9,900  Level Seattle Center
Wed 08:03:09 PM 47.1761 -119.5278 259° West 91 105 9,900 49 Level Seattle Center
Wed 08:04:10 PM 47.1717 -119.5636 260° West 88 101 10,000  Climbing Seattle Center
Wed 08:05:11 PM 47.1647 -119.5983 254° West 89 102 9,900 -49 Descending Seattle Center
Wed 08:06:12 PM 47.1597 -119.6344 259° West 92 106 9,900  Level Seattle Center
Wed 08:07:13 PM 47.1567 -119.6694 263° West 87 100 9,900  Level Seattle Center
Wed 08:08:14 PM 47.1486 -119.7103 254° West 87 100 9,900 49 Level Seattle Center
Wed 08:09:15 PM 47.1436 -119.7464 259° West 88 101 10,000 49 Climbing Seattle Center
Wed 08:10:16 PM 47.1392 -119.7839 260° West 94 108 10,000  Level Seattle Center
Wed 08:11:17 PM 47.1336 -119.8206 257° West 93 107 10,000  Level Seattle Center
Wed 08:12:18 PM 47.1261 -119.8569 253° West 95 109 10,000 -49 Level Seattle Center
Wed 08:13:19 PM 47.1208 -119.8950 258° West 96 110 9,900  Descending Seattle Center
Wed 08:14:20 PM 47.1169 -119.9311 261° West 90 104 10,000 49 Climbing Seattle Center
Wed 08:15:21 PM 47.1097 -119.9661 253° West 93 107 10,000  Level Seattle Center
Wed 08:16:22 PM 47.0989 -120.0022 246° West 95 109 10,000  Level Seattle Center
Wed 08:17:23 PM 47.0908 -120.0381 252° West 93 107 10,000 -49 Level Seattle Center
Wed 08:18:24 PM 47.0839 -120.0733 254° West 90 104 9,900  Descending Seattle Center
Wed 08:19:25 PM 47.0808 -120.1067 262° West 86 99 10,000 49 Climbing Seattle Center
Wed 08:20:26 PM 47.0753 -120.1542 260° West 102 117 10,000  Level Seattle Center
Wed 08:21:27 PM 47.0689 -120.1928 256° West 99 114 10,000 -49 Level Seattle Center
Wed 08:22:28 PM 47.0656 -120.2325 263° West 98 113 9,900 -49 Descending Seattle Center
Wed 08:23:29 PM 47.0556 -120.2711 249° West 98 113 9,900  Level Seattle Center
Wed 08:24:30 PM 47.0431 -120.3081 244° Southwest 100 115 9,900  Level Seattle Center
Wed 08:25:31 PM 47.0333 -120.3453 249° West 99 114 9,900 49 Level Seattle Center
Wed 08:26:32 PM 47.0281 -120.3881 260° West 99 114 10,000  Climbing Seattle Center
Wed 08:27:33 PM 47.0244 -120.4258 262° West 95 109 9,900  Descending Seattle Center
Wed 08:28:34 PM 47.0222 -120.4661 265° West 98 113 10,000 49 Climbing Seattle Center
Wed 08:29:35 PM 47.0231 -120.5056 272° West 99 114 10,000 -49 Level Seattle Center
Wed 08:30:36 PM 47.0256 -120.5447 275° West 99 114 9,900 -49 Descending Seattle Center
Wed 08:31:37 PM 47.0264 -120.5858 272° West 102 117 9,900  Level Seattle Center
Wed 08:32:38 PM 47.0328 -120.6239 284° West 92 106 9,900  Level Seattle Center
Wed 08:33:39 PM 47.0478 -120.6558 305° West 95 109 9,900  Level Seattle Center
Wed 08:34:40 PM 47.0603 -120.6889 299° West 97 112 9,900  Level Seattle Center
Wed 08:35:41 PM 47.0703 -120.7225 294° West 90 104 9,900  Level Seattle Center
Wed 08:36:42 PM 47.0806 -120.7581 293° West 92 106 9,900 49 Level Seattle Center
Wed 08:37:43 PM 47.0928 -120.7897 300° West 89 102 10,000 49 Climbing Seattle Center
Wed 08:38:44 PM 47.1031 -120.8283 291° West 95 109 10,000 98 Level Seattle Center
Wed 08:39:45 PM 47.1153 -120.8678 294° West 98 113 10,200 49 Climbing Seattle Center
Wed 08:40:46 PM 47.1275 -120.9086 294° West 107 123 10,100  Descending Seattle Center
Wed 08:41:47 PM 47.1369 -120.9483 289° West 105 121 10,200  Climbing Seattle Center
Wed 08:42:47 PM 47.1467 -120.9856 291° West 99 114 10,100 -50 Descending Seattle Center
Wed 08:43:48 PM 47.1569 -121.0247 291° West 104 120 10,100 49 Level Seattle Center
Wed 08:44:49 PM 47.1650 -121.0636 287° West 101 116 10,200 49 Climbing Seattle Center
Wed 08:45:50 PM 47.1739 -121.1019 289° West 100 115 10,200  Level Seattle Center
Wed 08:46:07 PM 47.1803 -121.1164 303° West 98 113 10,200 -98 Level Seattle Center
Wed 08:46:51 PM 47.1831 -121.1397 280° West 100 115 10,100 -200 Descending Seattle Center
Wed 08:47:07 PM 47.1861 -121.1556 286° West 102 117 10,000 -98 Descending Seattle Center
Wed 08:47:52 PM 47.1919 -121.1797 290° West 102 117 10,000  Level Seattle Center
Wed 08:48:08 PM 47.1956 -121.1994 285° West 107 123 10,000  Level Seattle Center
Wed 08:48:53 PM 47.2017 -121.2292 287° West 105 121 10,000 90 Level Seattle Center
Wed 08:49:15 PM 47.2042 -121.2406 288° West 103 119 10,100  Climbing Seattle Center
Wed 08:49:54 PM 47.2089 -121.2706 283° West 106 122 10,000 -98 Descending Seattle Center
Wed 08:50:16 PM 47.2117 -121.2853 286° West 104 120 10,000 98 Level Seattle Center
Wed 08:50:55 PM 47.2178 -121.3114 289° West 106 122 10,100  Climbing Seattle Center
Wed 08:51:23 PM 47.2211 -121.3292 285° West 105 121 10,000 -98 Descending Seattle Center
Wed 08:51:56 PM 47.2256 -121.3519 286° West 105 121 10,000  Level Seattle Center
Wed 08:52:12 PM 47.2281 -121.3644 286° West 105 121 10,000  Level Seattle Center
Wed 08:52:57 PM 47.2336 -121.3900 288° West 100 115 10,000  Level Seattle Center
Wed 08:53:13 PM 47.2367 -121.4056 286° West 104 120 10,000  Level Seattle Center
Wed 08:53:58 PM 47.2461 -121.4356 295° West 108 124 10,000 -90 Level Seattle Center
Wed 08:54:20 PM 47.2500 -121.4472 296° West 106 122 9,900 -98 Descending Seattle Center
Wed 08:54:59 PM 47.2589 -121.4739 296° West 105 121 9,900 90 Level Seattle Center
Wed 08:55:27 PM 47.2639 -121.4917 293° West 105 121 10,000  Climbing Seattle Center
Wed 08:56:00 PM 47.2703 -121.5114 296° West 101 116 9,900  Descending Seattle Center
Wed 08:56:28 PM 47.2756 -121.5278 295° West 102 117 10,000 98 Climbing Seattle Center
Wed 08:57:01 PM 47.2808 -121.5511 288° West 105 121 10,000 -109 Level Seattle Center
Wed 08:57:23 PM 47.2853 -121.5647 296° West 101 116 9,900 -98 Descending Seattle Center
Wed 08:58:02 PM 47.2928 -121.5911 293° West 100 115 9,900  Level Seattle Center
Wed 08:58:24 PM 47.2958 -121.6047 288° West 104 120 9,900  Level Seattle Center
Wed 08:59:03 PM 47.3006 -121.6328 284° West 104 120 9,900  Level Seattle Center
Wed 08:59:31 PM 47.3011 -121.6511 273° West 101 116 9,900  Level Seattle Center
Wed 09:00:04 PM 47.3042 -121.6719 282° West 98 113 9,900  Level Seattle Center
Wed 09:00:26 PM 47.3042 -121.6886 270° West 103 119 9,900 98 Level Seattle Center
Wed 09:01:05 PM 47.3094 -121.7144 287° West 105 121 10,000 100 Climbing Seattle Center
Wed 09:01:26 PM 47.3100 -121.7281 273° West 99 114 10,000  Level Seattle Center
Wed 09:02:06 PM 47.3167 -121.7533 291° West 92 106 10,000  Level Seattle Center
Wed 09:02:21 PM 47.3189 -121.7622 290° West 95 109 10,000 98 Level Seattle Center
Wed 09:03:07 PM 47.3289 -121.7883 299° West 96 110 10,100 90 Climbing Seattle Center
Wed 09:03:28 PM 47.3344 -121.7961 317° Northwest 92 106 10,100  Level Seattle Center
Wed 09:04:08 PM 47.3497 -121.8119 325° Northwest 95 109 10,100  Level Seattle Center
Wed 09:04:35 PM 47.3608 -121.8206 332° Northwest 99 114 10,100 -98 Level Seattle Center
Wed 09:05:09 PM 47.3736 -121.8339 325° Northwest 100 115 10,000 -98 Descending Seattle Center
Wed 09:05:36 PM 47.3844 -121.8433 329° Northwest 105 121 10,000  Level Seattle Center
Wed 09:06:10 PM 47.3989 -121.8564 329° Northwest 106 122 10,000 -98 Level Seattle Center
Wed 09:06:37 PM 47.4103 -121.8653 332° Northwest 105 121 9,900 -98 Descending Seattle Center
Wed 09:07:11 PM 47.4261 -121.8758 336° Northwest 102 117 9,900  Level Seattle Center
Wed 09:07:32 PM 47.4344 -121.8811 337° Northwest 102 117 9,900  Level Seattle Center
Wed 09:08:12 PM 47.4508 -121.8956 329° Northwest 102 117 9,900  Level Seattle Center
Wed 09:08:39 PM 47.4628 -121.9047 333° Northwest 101 116 9,900  Level Seattle Center
Wed 09:09:12 PM 47.4758 -121.9144 333° Northwest 101 116 9,900  Level Seattle Center
Wed 09:09:34 PM 47.4869 -121.9208 339° North 102 117 9,900  Level Seattle Center
Wed 09:10:13 PM 47.5014 -121.9308 335° Northwest 100 115 9,900  Level Seattle Center
Wed 09:10:35 PM 47.5111 -121.9367 338° Northwest 99 114 9,900  Level Seattle Center
Wed 09:11:14 PM 47.5278 -121.9511 330° Northwest 100 115 9,900  Level Seattle Center
Wed 09:11:30 PM 47.5333 -121.9539 341° North 101 116 9,900  Level Seattle Center
Wed 09:12:15 PM 47.5531 -121.9686 333° Northwest 101 116 9,900  Level Seattle Center
Wed 09:12:31 PM 47.5583 -121.9728 332° Northwest 101 116 9,900  Level Seattle Center
Wed 09:13:16 PM 47.5767 -121.9883 330° Northwest 98 113 9,900  Level Seattle Center
Wed 09:13:50 PM 47.5892 -121.9983 332° Northwest 98 113 9,900  Level Seattle Center
Wed 09:14:17 PM 47.6006 -122.0078 331° Northwest 98 113 9,900  Level Seattle Center
Wed 09:14:45 PM 47.6114 -122.0156 334° Northwest 97 112 9,900  Level Seattle Center
Wed 09:15:18 PM 47.6236 -122.0286 324° Northwest 98 113 9,900  Level Seattle Center
Wed 09:15:40 PM 47.6325 -122.0367 329° Northwest 101 116 9,900  Level Seattle Center
Wed 09:16:19 PM 47.6494 -122.0525 328° Northwest 102 117 9,900  Level Seattle Center
Wed 09:16:41 PM 47.6561 -122.0597 324° Northwest 102 117 9,900  Level Seattle Center
Wed 09:17:20 PM 47.6719 -122.0750 327° Northwest 98 113 9,900  Level Seattle Center
Wed 09:17:41 PM 47.6797 -122.0828 326° Northwest 98 113 9,900  Level Seattle Center
Wed 09:18:21 PM 47.6964 -122.0939 336° Northwest 99 114 9,900  Level Seattle Center
Wed 09:18:36 PM 47.7014 -122.0969 338° Northwest 98 113 9,900  Level Seattle Center
Wed 09:19:37 PM 47.7269 -122.1189 330° Northwest 96 110 9,900 56 Level Seattle Center
Wed 09:20:23 PM 47.7447 -122.1336 331° Northwest 97 112 10,000  Climbing Seattle Center
Wed 09:20:38 PM 47.7497 -122.1392 323° Northwest 98 113 9,900 -197 Descending Seattle Center
Wed 09:21:24 PM 47.7694 -122.1550 332° Northwest 103 119 9,800 -197 Descending Seattle Center
Wed 09:21:39 PM 47.7772 -122.1600 337° Northwest 110 127 9,700 -590 Descending Seattle Center
Wed 09:22:25 PM 47.7972 -122.1767 331° Northwest 112 129 9,200 -590 Descending Seattle Center
Wed 09:22:40 PM 47.8050 -122.1811 339° North 115 132 9,100 -492 Descending Seattle Center
Wed 09:23:26 PM 47.8258 -122.1950 336° Northwest 114 131 8,700 -561 Descending Seattle Center
Wed 09:24:27 PM 47.8544 -122.2158 334° Northwest 115 132 8,100 -347 Descending Seattle Center
Wed 09:25:27 PM 47.8808 -122.2331 336° Northwest 106 122 8,000 -45 Descending Seattle Center
Wed 09:26:41 PM 47.9117 -122.2589 331° Northwest 94 108 8,000 49 Level Seattle Center
Wed 09:27:29 PM 47.9278 -122.2642 348° North 91 105 8,100 55 Climbing Seattle Center
Wed 09:28:30 PM 47.9531 -122.2794 338° Northwest 100 115 8,100  Level Seattle Center
Wed 09:29:43 PM 47.9881 -122.2944 344° North 98 113 8,100  Level Seattle Center
Wed 09:30:32 PM 48.0092 -122.3025 346° North 98 113 8,100 -218 Level Seattle Center
Wed 09:31:33 PM 48.0383 -122.3083 352° North 107 123 7,700 -344 Descending Seattle Center
Wed 09:32:34 PM 48.0681 -122.3175 348° North 111 128 7,400 -344 Descending Seattle Center
Wed 09:33:35 PM 48.0969 -122.3267 348° North 109 125 7,000 -344 Descending Seattle Center
Wed 09:34:36 PM 48.1239 -122.3358 347° North 102 117 6,700 -295 Descending Seattle Center
Wed 09:35:37 PM 48.1525 -122.3464 346° North 107 123 6,400 -295 Descending Seattle Center
Wed 09:36:38 PM 48.1775 -122.3567 345° North 94 108 6,100 -183 Descending Seattle Center
Wed 09:37:48 PM 48.2108 -122.3686 347° North 90 104 6,000  Descending Seattle Center
Wed 09:38:49 PM 48.2328 -122.3758 348° North 83 96 6,100 54 Climbing Seattle Center
Wed 09:39:40 PM 48.2539 -122.3836 346° North 89 102 6,100  Level Seattle Center
Wed 09:40:41 PM 48.2781 -122.3878 353° North 87 100 6,100 49 Level Seattle Center
Wed 09:41:42 PM 48.3014 -122.3936 351° North 85 98 6,200  Climbing Seattle Center
Wed 09:42:43 PM 48.3250 -122.3994 351° North 89 102 6,100 -92 Descending Seattle Center
Wed 09:43:52 PM 48.3550 -122.4083 349° North 95 109 6,000 -49 Descending Seattle Center
Wed 09:44:45 PM 48.3747 -122.4119 353° North 89 102 6,000  Level Seattle Center
Wed 09:45:53 PM 48.4075 -122.4214 349° North 90 104 6,000 50 Level Seattle Center
Wed 09:46:46 PM 48.4286 -122.4272 350° North 88 101 6,100 105 Climbing Seattle Center
Wed 09:47:47 PM 48.4528 -122.4342 349° North 91 105 6,200  Climbing Seattle Center
Wed 09:48:48 PM 48.4769 -122.4414 349° North 90 104 6,100 -49 Descending Seattle Center
Wed 09:49:49 PM 48.5003 -122.4494 347° North 88 101 6,100  Level Seattle Center
Wed 09:50:50 PM 48.5233 -122.4575 347° North 87 100 6,100  Level Seattle Center
Wed 09:51:51 PM 48.5478 -122.4644 349° North 88 101 6,100 -94 Level Seattle Center
Wed 09:52:57 PM 48.5781 -122.4767 345° North 91 105 5,900 -295 Descending Seattle Center
Wed 09:53:53 PM 48.5983 -122.4900 336° Northwest 99 114 5,500 -595 Descending Seattle Center
Wed 09:54:58 PM 48.6322 -122.5225 328° Northwest 119 137 4,700 -727 Descending Seattle Center
Wed 09:55:32 PM 48.6333 -122.5333 279° West 110 127 4,300 -383 Descending Vancouver Center
Wed 09:56:32 PM 48.6667 -122.5333 360° North 110 127 4,100 -150 Descending Vancouver Center
Wed 09:57:32 PM 48.6833 -122.5667 307° West 100 115 4,000 -150 Descending Vancouver Center
Wed 09:58:32 PM 48.7167 -122.5833 342° North 100 115 3,800 -550 Descending Vancouver Center
Wed 09:59:32 PM 48.7333 -122.5833 360° North 110 127 2,900 -800 Descending Vancouver Center
Wed 10:00:32 PM 48.7667 -122.5833 360° North 110 127 2,200 -700 Descending Vancouver Center
Wed 10:01:32 PM 48.8000 -122.5500 33° Northeast 100 115 1,500 -700 Descending Vancouver Center
Wed 10:02:32 PM 48.8000 -122.5333 90° East 70 81 800 -550 Descending Vancouver Center
Wed 10:03:32 PM 48.7833 -122.5333 180° South 60 69 400 -400 Descending Vancouver Center

Login

Don't have an account? Register now (free) for customized features, flight alerts, and more!